Pays
Station

 

Conditions  météo  pour  Pittsburgh, Pittsburgh International Airport  -  Etats-Unis    Etats-Unis

  
22 °C
    
 
 

METAR pour Pittsburgh, Pittsburgh International Airport :

KPIT 161951Z 26003KT 10SM TS FEW027 FEW045CB BKN060 BKN130 22/21 A3010 RMK AO2 PK WND 28033/1857 LTG DSNT N-SE RAE25 SLP191 OCNL LTGICCG NE-E TS NE-E MOV NE P0058 T02170211

 

Voici le bulletin pour Pittsburgh, Pittsburgh International Airport - Etats-Unis.
 
Le bulletin a été fait il y a 13 minutes, à 19:51 UTC .
Le vent soufflait à la vitesse de 1.5 mètres par seconde de Ouest (260°).
 
La température était de 22 °C, avec un point de rosée à 21 °C.
La température ressentie était de 20 °C.
 
La pression atmosphérique était de 1019 hPa.
L'humidité relative était de 94.1%.
 
Il y avait 1 à 2/8ème de nébulosité à une hauteur de 823 mètres, 1 à 2/8ème cumulonimbus de nébulosité à une hauteur de 1372 mètres et 5 à 7/8ème de nébulosité à une hauteur de 1829 mètres.
 
La visibilité globale était de 16.1 kilomètres.
 
Actuellement orage.

 
 
 

Pays :   A   B   C   D   E   F   G   H   I   J   K   L   M   N   O   P   Q   R   S   T   U   V   W   Y   Z

 

Partenaires :  Info Météo avec Met'info
Météo Marine avec MeteoMarine.net
Infos Site  |  Infos Légales  |  Crédits  |  Confidentialité
Contactez-nous  |  Ajouter aux favoris
© 2013-2018 METAR - Tous droits réservés